Latest Weather Observations for Horn Island

IDQ60801

Issued at 4:22 pm EST Tuesday 19 January 2021 (issued every 10 minutes, with the page automatically refreshed every 10 minutes)

About weather observations | Map of weather stations | Latest weather observations for QLD | Other Formats
Station Details ID: 027058 Name: HORN ISLAND Lat: -10.58 Lon: 142.29 Height: 4.0 m
Data from the previous 72 hours. | See also: Recent months at Horn Island
Date/Time
EST
Temp
°C
App
Temp
°C
Dew
Point
°C
Rel
Hum
%
Delta-T
°C
Wind Press
QNH
hPa
Press
MSL
hPa
Rain since
9am
mm
Dir  Spd
km/h
Gust
km/h
Spd
kts
Gust
kts
19/04:00pm 25.9 30.1 24.1 90 1.2 W 9 11 5 6 1006.3 1006.3 20.4
19/03:30pm 25.5 30.0 23.9 91 1.1 WSW 7 9 4 5 1006.2 1006.2 20.4
19/03:00pm 25.0 28.4 23.4 91 1.1 SW 11 15 6 8 1006.8 1006.8 19.6
19/02:30pm 25.4 28.3 23.8 91 1.1 SSW 15 19 8 10 1007.6 1007.6 18.6
19/02:12pm 25.2 27.9 23.4 90 1.2 SW 15 20 8 11 1008.5 1008.5 17.4
19/02:01pm 25.8 28.9 24.2 91 1.1 SSW 15 20 8 11 1008.9 1008.9 17.2
19/02:00pm 25.8 28.9 24.2 91 1.1 SSW 15 20 8 11 1008.9 1008.9 17.2
19/01:50pm 25.9 29.3 24.1 90 1.2 SSW 13 17 7 9 1009.3 1009.3 15.8
19/01:40pm 26.3 30.6 24.3 89 1.4 SW 9 13 5 7 1009.3 1009.3 15.2
19/01:39pm 26.3 30.6 24.3 89 1.4 SW 9 13 5 7 1009.3 1009.3 15.2
19/01:36pm 26.3 30.6 24.2 88 1.4 WSW 9 11 5 6 1009.4 1009.4 14.6
19/01:30pm 26.3 30.6 24.2 88 1.4 W 9 19 5 10 1009.5 1009.5 14.0
19/01:29pm 26.2 30.0 24.1 88 1.4 W 11 19 6 10 1009.5 1009.5 13.8
19/01:00pm 26.5 28.3 24.2 87 1.6 NW 22 35 12 19 1009.3 1009.3 13.8
19/12:30pm 27.8 30.8 24.0 80 2.6 NW 15 30 8 16 1009.7 1009.7 13.8
19/12:00pm 28.6 33.0 24.4 78 2.9 W 9 13 5 7 1009.6 1009.6 13.8
19/11:30am 27.9 31.2 23.9 79 2.8 W 13 19 7 10 1009.4 1009.4 13.8
19/11:00am 27.5 31.4 24.9 86 1.8 W 13 20 7 11 1009.8 1009.8 13.8
19/10:30am 27.3 31.5 25.3 89 1.4 NW 13 17 7 9 1010.2 1010.2 13.8
19/10:24am 26.8 30.8 25.0 90 1.3 NW 13 20 7 11 1010.3 1010.3 13.8
19/10:00am 26.5 27.7 23.2 82 2.2 N 22 41 12 22 1010.6 1010.6 9.0
19/09:46am 28.5 32.5 25.1 82 2.4 NW 13 19 7 10 1010.0 1010.0 1.0
19/09:30am 29.9 34.5 24.8 74 3.6 WNW 9 15 5 8 1009.7 1009.7 0.0
19/09:00am 30.4 34.3 24.3 70 4.3 W 11 17 6 9 1010.0 1010.0 0.0
19/08:30am 29.9 34.3 24.5 73 3.8 SW 9 13 5 7 1009.5 1009.5 0.0
19/08:00am 28.8 33.5 25.0 80 2.7 WSW 9 11 5 6 1009.7 1009.7 0.0
19/07:30am 27.4 32.8 25.2 88 1.5 SSW 6 7 3 4 1009.2 1009.2 0.0
19/07:00am 26.4 32.6 24.6 90 1.2 CALM 0 0 0 0 1008.9 1008.9 0.0
19/06:30am 25.9 31.8 24.1 90 1.2 CALM 0 0 0 0 1008.4 1008.4 0.0
19/06:00am 25.8 31.6 24.0 90 1.2 CALM 0 2 0 1 1008.0 1008.0 0.0
19/05:30am 25.9 31.4 24.1 90 1.2 S 2 6 1 3 1007.7 1007.7 0.0
19/05:00am 25.9 31.0 24.1 90 1.2 S 4 7 2 4 1007.5 1007.5 0.0
19/04:30am 26.2 32.3 24.4 90 1.2 CALM 0 0 0 0 1007.4 1007.4 0.0
19/04:00am 26.2 32.2 24.2 89 1.4 CALM 0 0 0 0 1007.2 1007.2 0.0
19/03:30am 26.4 32.5 24.4 89 1.4 CALM 0 0 0 0 1007.0 1007.0 0.0
19/03:00am 26.6 32.8 24.6 89 1.4 CALM 0 0 0 0 1007.0 1007.0 0.0
19/02:30am 26.7 33.0 24.7 89 1.4 CALM 0 2 0 1 1007.0 1007.0 0.0
19/02:00am 26.6 32.1 24.6 89 1.4 SW 4 6 2 3 1007.2 1007.2 0.0
19/01:30am 26.7 31.5 24.5 88 1.5 SW 7 9 4 5 1007.1 1007.1 0.0
19/01:00am 26.7 31.1 24.5 88 1.5 S 9 11 5 6 1007.6 1007.6 0.0
19/12:30am 26.8 33.0 24.6 88 1.5 CALM 0 0 0 0 1007.8 1007.8 0.0
19/12:00am 26.8 32.8 24.3 86 1.7 CALM 0 0 0 0 1008.1 1008.1 0.0
 
Date/Time
EST
Temp
°C
App
Temp
°C
Dew
Point
°C
Rel
Hum
%
Delta-T
°C
Wind Press
QNH
hPa
Press
MSL
hPa
Rain since
9am
mm
Dir  Spd
km/h
Gust
km/h
Spd
kts
Gust
kts
18/11:30pm 27.0 32.0 24.5 86 1.7 S 6 9 3 5 1008.4 1008.4 0.0
18/11:00pm 27.0 33.1 24.5 86 1.7 CALM 0 0 0 0 1008.6 1008.6 0.0
18/10:30pm 27.6 33.9 24.8 85 2.0 CALM 0 0 0 0 1008.9 1008.9 0.0
18/10:00pm 27.8 34.1 24.8 84 2.1 CALM 0 0 0 0 1008.7 1008.7 0.0
18/09:30pm 28.0 32.9 24.4 81 2.5 WSW 6 9 3 5 1008.8 1008.8 0.0
18/09:00pm 28.3 32.9 24.7 81 2.5 WSW 9 13 5 7 1008.5 1008.5 0.0
18/08:30pm 28.3 32.7 24.5 80 2.6 W 9 13 5 7 1008.3 1008.3 0.0
18/08:00pm 28.3 32.6 24.3 79 2.8 WNW 9 15 5 8 1007.8 1007.8 0.0
18/07:30pm 28.5 32.6 24.5 79 2.8 WNW 11 15 6 8 1007.6 1007.6 0.0
18/07:00pm 28.6 33.1 24.6 79 2.8 W 9 15 5 8 1007.4 1007.4 0.0
18/06:30pm 28.9 32.8 24.9 79 2.8 WNW 13 20 7 11 1006.9 1006.9 0.0
18/06:00pm 29.0 32.9 24.8 78 2.9 WNW 13 20 7 11 1006.9 1006.9 0.0
18/05:30pm 29.5 32.7 24.4 74 3.6 W 15 24 8 13 1006.3 1006.3 0.0
18/05:00pm 30.1 33.5 24.7 73 3.8 W 15 20 8 11 1006.3 1006.3 0.0
18/04:30pm 30.5 33.4 24.4 70 4.3 W 17 22 9 12 1006.2 1006.2 0.0
18/04:00pm 31.3 34.8 24.9 69 4.5 W 15 24 8 13 1005.8 1005.8 0.0
18/03:30pm 31.1 34.1 24.0 66 4.9 W 15 20 8 11 1005.4 1005.4 0.0
18/03:00pm 30.9 33.8 24.5 68 4.5 WNW 17 22 9 12 1005.5 1005.5 0.0
18/02:30pm 30.5 33.3 24.9 72 3.9 W 19 30 10 16 1005.7 1005.7 0.0
18/02:00pm 30.6 33.1 24.5 70 4.3 WNW 19 30 10 16 1006.2 1006.2 0.0
18/01:30pm 30.9 33.6 25.7 74 3.7 NW 22 30 12 16 1007.1 1007.1 0.0
18/01:00pm 31.1 34.0 24.5 68 4.6 NNW 17 24 9 13 1007.3 1007.3 0.0
18/12:30pm 31.5 35.0 25.4 70 4.3 NNW 17 22 9 12 1008.0 1008.0 0.0
18/12:00pm 31.2 34.5 25.1 70 4.3 N 17 22 9 12 1008.5 1008.5 0.0
18/11:30am 30.9 34.1 24.3 68 4.6 NNW 15 20 8 11 1008.6 1008.6 0.0
18/11:00am 30.8 34.3 24.9 71 4.2 N 15 20 8 11 1008.6 1008.6 0.0
18/10:30am 29.9 33.5 23.8 70 4.2 N 11 15 6 8 1008.6 1008.6 0.0
18/10:00am 30.7 35.7 24.8 71 4.1 NNW 7 11 4 6 1008.6 1008.6 0.0
18/09:30am 29.8 33.8 24.4 73 3.8 N 11 15 6 8 1008.6 1008.6 0.0
18/09:00am 29.7 34.2 24.6 74 3.6 E 9 11 5 6 1008.6 1008.6 0.0
18/08:30am 29.5 33.7 24.8 76 3.3 E 11 15 6 8 1008.3 1008.3 0.0
18/08:00am 28.1 34.2 25.1 84 2.1 ESE 2 7 1 4 1007.8 1007.8 0.0
18/07:30am 27.3 34.2 25.7 91 1.1 CALM 0 0 0 0 1007.7 1007.7 0.0
18/07:00am 26.6 33.1 25.0 91 1.1 CALM 0 0 0 0 1007.8 1007.8 0.0
18/06:30am 26.0 32.1 24.4 91 1.1 CALM 0 0 0 0 1007.4 1007.4 0.0
18/06:00am 26.0 32.1 24.4 91 1.1 CALM 0 0 0 0 1007.1 1007.1 0.0
18/05:30am 26.1 32.2 24.5 91 1.1 CALM 0 0 0 0 1006.9 1006.9 0.0
18/05:00am 26.0 32.1 24.4 91 1.1 CALM 0 0 0 0 1006.2 1006.2 0.0
18/04:30am 25.9 31.8 24.1 90 1.2 CALM 0 0 0 0 1005.8 1005.8 0.0
18/04:00am 26.1 32.2 24.5 91 1.1 CALM 0 0 0 0 1005.7 1005.7 0.0
18/03:30am 26.1 32.1 24.3 90 1.2 CALM 0 0 0 0 1005.7 1005.7 0.0
18/03:00am 26.4 32.7 24.8 91 1.1 CALM 0 0 0 0 1005.9 1005.9 0.0
18/02:30am 26.3 32.4 24.5 90 1.2 CALM 0 0 0 0 1006.1 1006.1 0.0
18/02:00am 26.4 32.2 24.6 90 1.3 ESE 2 6 1 3 1006.4 1006.4 0.0
18/01:30am 26.5 32.8 24.7 90 1.2 CALM 0 0 0 0 1006.5 1006.5 0.0
18/01:00am 26.4 32.5 24.4 89 1.4 CALM 0 0 0 0 1006.8 1006.8 0.0
18/12:30am 26.7 33.0 24.7 89 1.4 CALM 0 0 0 0 1007.0 1007.0 0.0
18/12:00am 26.7 33.0 24.7 89 1.4 CALM 0 0 0 0 1007.3 1007.3 0.0
 
Date/Time
EST
Temp
°C
App
Temp
°C
Dew
Point
°C
Rel
Hum
%
Delta-T
°C
Wind Press
QNH
hPa
Press
MSL
hPa
Rain since
9am
mm
Dir  Spd
km/h
Gust
km/h
Spd
kts
Gust
kts
17/11:30pm 26.8 32.4 24.8 89 1.4 ESE 4 7 2 4 1007.5 1007.5 0.0
17/11:00pm 27.0 33.2 24.6 87 1.7 CALM 0 0 0 0 1007.5 1007.5 0.0
17/10:30pm 27.2 33.5 24.8 87 1.7 CALM 0 0 0 0 1007.5 1007.5 0.0
17/10:00pm 27.5 34.0 25.1 87 1.7 CALM 0 0 0 0 1007.3 1007.3 0.0
17/09:30pm 27.9 34.5 25.3 86 1.8 CALM 0 0 0 0 1007.3 1007.3 0.0
17/09:00pm 27.7 33.6 24.7 84 2.1 SSW 2 7 1 4 1007.1 1007.1 0.0
17/08:30pm 28.0 33.2 24.8 83 2.2 SSW 6 6 3 3 1006.7 1006.7 0.0
17/08:00pm 28.4 33.5 24.6 80 2.7 WSW 6 7 3 4 1006.4 1006.4 0.0
17/07:30pm 28.6 33.4 24.4 78 2.9 WNW 7 9 4 5 1006.1 1006.1 0.0
17/07:00pm 29.1 33.5 23.8 73 3.7 NW 7 11 4 6 1005.7 1005.7 0.0
17/06:30pm 29.5 32.9 23.4 69 4.2 NW 11 15 6 8 1005.3 1005.3 0.0
17/06:00pm 30.3 33.5 23.0 65 5.0 NW 11 17 6 9 1005.0 1005.0 0.0
17/05:30pm 30.2 33.8 24.4 71 4.0 NNW 13 20 7 11 1004.5 1004.5 0.0
17/05:00pm 30.5 34.2 24.6 70 4.1 NNW 13 19 7 10 1004.2 1004.2 0.0
17/04:30pm 30.3 33.3 24.0 69 4.4 NNW 15 20 8 11 1004.2 1004.2 0.0
17/04:00pm 30.8 33.4 24.0 67 4.7 NNW 17 20 9 11 1004.6 1004.6 0.0
17/03:30pm 30.4 33.7 24.5 70 4.1 NNW 15 19 8 10 1004.7 1004.7 0.0
17/03:00pm 30.3 34.1 24.7 72 3.9 N 13 17 7 9 1005.0 1005.0 0.0
17/02:30pm 30.2 34.9 25.5 76 3.3 NNW 11 17 6 9 1005.4 1005.4 0.0
17/02:00pm 29.6 32.7 24.2 73 3.8 NNW 15 20 8 11 1005.9 1005.9 0.0
17/01:30pm 29.4 32.6 24.9 77 3.2 NNW 17 20 9 11 1006.1 1006.1 0.0
17/01:00pm 29.6 32.1 24.5 74 3.6 NNW 19 26 10 14 1006.6 1006.6 0.0
17/12:30pm 30.7 34.6 23.6 66 4.9 NNW 9 13 5 7 1006.8 1006.8 0.0
17/12:00pm 30.4 34.3 24.3 70 4.3 N 11 17 6 9 1007.2 1007.2 0.0
17/11:30am 30.6 35.0 25.0 72 3.9 NNE 11 17 6 9 1007.4 1007.4 0.0
17/11:00am 30.3 34.4 24.0 69 4.4 N 9 15 5 8 1007.4 1007.4 0.0
17/10:30am 30.5 34.9 24.4 70 4.3 N 9 13 5 7 1007.2 1007.2 0.0
17/10:00am 30.0 34.1 23.2 67 4.7 N 7 11 4 6 1007.2 1007.2 0.0
17/09:30am 29.8 34.2 24.4 73 3.8 E 9 15 5 8 1007.6 1007.6 0.0
17/09:00am 29.2 33.6 24.5 76 3.3 ENE 9 15 5 8 1007.4 1007.4 0.6
17/08:30am 28.9 33.9 23.8 74 3.5 SSE 4 9 2 5 1007.1 1007.1 0.6
17/08:00am 28.5 33.4 24.7 80 2.7 ESE 7 9 4 5 1006.5 1006.5 0.6
17/07:30am 27.5 34.4 25.7 90 1.3 CALM 0 6 0 3 1006.4 1006.4 0.6
17/07:00am 26.3 32.6 24.7 91 1.1 CALM 0 0 0 0 1005.9 1005.9 0.6
17/06:30am 25.7 31.6 24.1 91 1.1 CALM 0 0 0 0 1005.9 1005.9 0.6
17/06:00am 25.7 31.6 24.1 91 1.1 CALM 0 0 0 0 1005.7 1005.7 0.6
17/05:30am 25.7 31.6 24.1 91 1.1 CALM 0 0 0 0 1005.4 1005.4 0.6
17/05:00am 25.8 31.8 24.2 91 1.1 CALM 0 0 0 0 1005.2 1005.2 0.6
17/04:30am 25.9 31.9 24.3 91 1.1 CALM 0 0 0 0 1004.9 1004.9 0.6
17/04:00am 26.0 32.1 24.4 91 1.1 CALM 0 0 0 0 1005.1 1005.1 0.6
17/03:30am 26.0 30.9 24.4 91 1.1 SSE 6 6 3 3 1005.1 1005.1 0.6
17/03:00am 26.0 30.8 24.4 91 1.1 SSE 7 9 4 5 1005.3 1005.3 0.6
17/02:30am 26.0 32.0 24.2 90 1.2 CALM 0 0 0 0 1005.7 1005.7 0.6
17/02:00am 26.1 32.2 24.5 91 1.1 CALM 0 0 0 0 1005.6 1005.6 0.6
17/01:30am 26.0 32.0 24.2 90 1.2 CALM 0 0 0 0 1006.0 1006.0 0.6
17/01:00am 26.1 32.1 24.3 90 1.2 CALM 0 0 0 0 1006.4 1006.4 0.6
17/12:30am 26.0 32.0 24.2 90 1.2 CALM 0 0 0 0 1006.6 1006.6 0.6
17/12:00am 25.9 31.8 24.1 90 1.2 CALM 0 0 0 0 1006.8 1006.8 0.6
 
Date/Time
EST
Temp
°C
App
Temp
°C
Dew
Point
°C
Rel
Hum
%
Delta-T
°C
Wind Press
QNH
hPa
Press
MSL
hPa
Rain since
9am
mm
Dir  Spd
km/h
Gust
km/h
Spd
kts
Gust
kts
16/11:30pm 26.0 31.8 24.0 89 1.4 CALM 0 0 0 0 1006.9 1006.9 0.6
16/11:00pm 26.2 32.2 24.2 89 1.4 CALM 0 0 0 0 1007.0 1007.0 0.6
16/10:30pm 26.4 32.5 24.4 89 1.4 CALM 0 0 0 0 1006.8 1006.8 0.6
16/10:00pm 26.6 32.8 24.6 89 1.4 CALM 0 0 0 0 1006.6 1006.6 0.6
16/09:30pm 26.8 31.9 24.6 88 1.5 S 6 7 3 4 1006.4 1006.4 0.6
16/09:00pm 27.0 33.2 24.6 87 1.7 CALM 0 0 0 0 1006.2 1006.2 0.6
16/08:30pm 27.0 32.8 24.5 86 1.7 SSW 2 6 1 3 1005.6 1005.6 0.6
16/08:00pm 27.1 31.9 24.4 85 1.9 W 7 9 4 5 1005.0 1005.0 0.6
16/07:30pm 27.3 32.1 24.4 84 2.0 WNW 7 9 4 5 1004.7 1004.7 0.6
16/07:00pm 27.5 32.3 24.4 83 2.2 WNW 7 11 4 6 1004.5 1004.5 0.6
16/06:30pm 27.9 32.7 24.5 82 2.4 WNW 7 9 4 5 1003.9 1003.9 0.6
16/06:00pm 28.1 31.7 24.3 80 2.6 WNW 13 19 7 10 1003.8 1003.8 0.6
16/05:30pm 28.3 32.2 24.3 79 2.8 WNW 11 15 6 8 1003.5 1003.5 0.6
16/05:00pm 28.0 32.1 24.0 79 2.8 NW 9 13 5 7 1003.3 1003.3 0.6
16/04:30pm 27.7 31.9 24.1 81 2.5 NW 9 13 5 7 1003.2 1003.2 0.6

Other formats

Comma delimited format used in spreadsheet applications
http://www.bom.gov.au/fwo/IDQ60801/IDQ60801.94174.axf

JavaScript Object Notation format (JSON) in row-major order
http://www.bom.gov.au/fwo/IDQ60801/IDQ60801.94174.json

Data quality

Most of these data are generated automatically and are frequently updated. Quality checks on data are not normally performed. It is possible for incorrect values to appear. Refer to information at About Latest Weather Observations and please check the disclaimer before using these data.